sensor_id;sensor_type;location;lat;lon;timestamp;P1;durP1;ratioP1;P2;durP2;ratioP2
177;SDS011;77;48.792;9.032;2022-09-29T00:02:03;9.60;;;4.60;;
177;SDS011;77;48.792;9.032;2022-09-29T00:04:30;7.60;;;4.47;;
177;SDS011;77;48.792;9.032;2022-09-29T00:06:55;8.43;;;4.80;;
177;SDS011;77;48.792;9.032;2022-09-29T00:09:20;7.10;;;4.77;;
177;SDS011;77;48.792;9.032;2022-09-29T00:11:46;8.03;;;4.80;;
177;SDS011;77;48.792;9.032;2022-09-29T00:14:11;10.93;;;4.70;;
177;SDS011;77;48.792;9.032;2022-09-29T00:16:36;8.90;;;4.70;;
177;SDS011;77;48.792;9.032;2022-09-29T00:19:01;9.50;;;4.90;;
177;SDS011;77;48.792;9.032;2022-09-29T00:21:28;8.23;;;4.90;;
177;SDS011;77;48.792;9.032;2022-09-29T00:23:53;8.33;;;5.30;;
177;SDS011;77;48.792;9.032;2022-09-29T00:26:19;8.87;;;5.03;;
177;SDS011;77;48.792;9.032;2022-09-29T00:28:46;8.70;;;5.07;;
177;SDS011;77;48.792;9.032;2022-09-29T00:31:11;8.90;;;5.20;;
177;SDS011;77;48.792;9.032;2022-09-29T00:33:37;10.10;;;5.47;;
177;SDS011;77;48.792;9.032;2022-09-29T00:36:02;9.97;;;5.40;;
177;SDS011;77;48.792;9.032;2022-09-29T00:38:29;11.53;;;4.90;;
177;SDS011;77;48.792;9.032;2022-09-29T00:40:55;9.83;;;5.30;;
177;SDS011;77;48.792;9.032;2022-09-29T00:43:21;11.20;;;5.63;;
177;SDS011;77;48.792;9.032;2022-09-29T00:45:47;8.13;;;5.30;;
177;SDS011;77;48.792;9.032;2022-09-29T00:48:13;9.43;;;5.50;;
177;SDS011;77;48.792;9.032;2022-09-29T00:50:41;9.90;;;5.73;;
177;SDS011;77;48.792;9.032;2022-09-29T00:53:07;7.50;;;5.30;;
177;SDS011;77;48.792;9.032;2022-09-29T00:55:36;12.10;;;5.43;;
177;SDS011;77;48.792;9.032;2022-09-29T00:58:02;8.70;;;4.90;;
177;SDS011;77;48.792;9.032;2022-09-29T01:00:29;7.83;;;5.00;;
177;SDS011;77;48.792;9.032;2022-09-29T01:02:56;8.30;;;5.07;;
177;SDS011;77;48.792;9.032;2022-09-29T01:05:24;8.53;;;5.30;;
177;SDS011;77;48.792;9.032;2022-09-29T01:07:50;9.10;;;5.00;;
177;SDS011;77;48.792;9.032;2022-09-29T01:10:15;12.47;;;5.50;;
177;SDS011;77;48.792;9.032;2022-09-29T01:12:43;10.63;;;4.87;;
177;SDS011;77;48.792;9.032;2022-09-29T01:15:09;10.07;;;5.13;;
177;SDS011;77;48.792;9.032;2022-09-29T01:17:35;8.53;;;4.80;;
177;SDS011;77;48.792;9.032;2022-09-29T01:20:02;8.33;;;4.90;;
177;SDS011;77;48.792;9.032;2022-09-29T01:22:47;8.40;;;5.07;;
177;SDS011;77;48.792;9.032;2022-09-29T01:25:19;10.80;;;5.10;;
177;SDS011;77;48.792;9.032;2022-09-29T01:30:41;7.23;;;4.83;;
177;SDS011;77;48.792;9.032;2022-09-29T01:33:18;9.80;;;5.00;;
177;SDS011;77;48.792;9.032;2022-09-29T01:35:47;10.23;;;5.10;;
177;SDS011;77;48.792;9.032;2022-09-29T01:38:22;9.70;;;4.83;;
177;SDS011;77;48.792;9.032;2022-09-29T01:40:53;8.57;;;5.30;;
177;SDS011;77;48.792;9.032;2022-09-29T01:43:23;8.20;;;4.60;;
177;SDS011;77;48.792;9.032;2022-09-29T01:45:52;8.33;;;4.90;;
177;SDS011;77;48.792;9.032;2022-09-29T01:48:23;9.87;;;5.07;;
177;SDS011;77;48.792;9.032;2022-09-29T01:50:50;8.90;;;4.90;;
177;SDS011;77;48.792;9.032;2022-09-29T01:53:18;6.87;;;4.53;;
177;SDS011;77;48.792;9.032;2022-09-29T01:55:46;10.30;;;4.57;;
177;SDS011;77;48.792;9.032;2022-09-29T01:58:14;7.67;;;5.20;;
177;SDS011;77;48.792;9.032;2022-09-29T02:00:41;10.30;;;5.10;;
177;SDS011;77;48.792;9.032;2022-09-29T02:03:10;7.03;;;4.63;;
177;SDS011;77;48.792;9.032;2022-09-29T02:05:40;10.50;;;4.77;;
177;SDS011;77;48.792;9.032;2022-09-29T02:08:09;7.60;;;4.50;;
177;SDS011;77;48.792;9.032;2022-09-29T02:10:36;6.67;;;4.70;;
177;SDS011;77;48.792;9.032;2022-09-29T02:13:04;8.13;;;4.50;;
177;SDS011;77;48.792;9.032;2022-09-29T02:15:31;8.10;;;4.90;;
177;SDS011;77;48.792;9.032;2022-09-29T02:17:59;8.03;;;5.00;;
177;SDS011;77;48.792;9.032;2022-09-29T02:20:26;7.47;;;4.43;;
177;SDS011;77;48.792;9.032;2022-09-29T02:22:51;7.13;;;4.50;;
177;SDS011;77;48.792;9.032;2022-09-29T02:25:17;11.20;;;5.07;;
177;SDS011;77;48.792;9.032;2022-09-29T02:27:43;7.90;;;4.70;;
177;SDS011;77;48.792;9.032;2022-09-29T02:30:09;8.13;;;5.00;;
177;SDS011;77;48.792;9.032;2022-09-29T02:32:35;10.60;;;4.40;;
177;SDS011;77;48.792;9.032;2022-09-29T02:35:00;8.80;;;4.70;;
177;SDS011;77;48.792;9.032;2022-09-29T02:37:33;7.13;;;4.30;;
177;SDS011;77;48.792;9.032;2022-09-29T02:40:02;7.37;;;4.67;;
177;SDS011;77;48.792;9.032;2022-09-29T02:42:29;11.07;;;4.70;;
177;SDS011;77;48.792;9.032;2022-09-29T02:44:59;7.20;;;4.53;;
177;SDS011;77;48.792;9.032;2022-09-29T02:47:36;6.90;;;4.43;;
177;SDS011;77;48.792;9.032;2022-09-29T02:50:14;7.87;;;4.70;;
177;SDS011;77;48.792;9.032;2022-09-29T02:52:46;7.23;;;4.40;;
177;SDS011;77;48.792;9.032;2022-09-29T02:55:16;9.70;;;4.67;;
177;SDS011;77;48.792;9.032;2022-09-29T02:57:44;7.93;;;4.60;;
177;SDS011;77;48.792;9.032;2022-09-29T03:00:12;9.70;;;4.43;;
177;SDS011;77;48.792;9.032;2022-09-29T03:02:38;8.90;;;4.47;;
177;SDS011;77;48.792;9.032;2022-09-29T03:05:04;9.23;;;4.53;;
177;SDS011;77;48.792;9.032;2022-09-29T03:07:29;6.20;;;4.13;;
177;SDS011;77;48.792;9.032;2022-09-29T03:09:56;6.37;;;4.37;;
177;SDS011;77;48.792;9.032;2022-09-29T03:12:21;6.70;;;4.40;;
177;SDS011;77;48.792;9.032;2022-09-29T03:14:47;11.77;;;4.47;;
177;SDS011;77;48.792;9.032;2022-09-29T03:17:12;5.90;;;4.23;;
177;SDS011;77;48.792;9.032;2022-09-29T03:19:37;7.80;;;4.50;;
177;SDS011;77;48.792;9.032;2022-09-29T03:22:03;6.77;;;4.40;;
177;SDS011;77;48.792;9.032;2022-09-29T03:24:28;7.40;;;4.30;;
177;SDS011;77;48.792;9.032;2022-09-29T03:26:55;8.73;;;4.83;;
177;SDS011;77;48.792;9.032;2022-09-29T03:29:20;7.90;;;4.47;;
177;SDS011;77;48.792;9.032;2022-09-29T03:31:45;7.43;;;4.47;;
177;SDS011;77;48.792;9.032;2022-09-29T03:34:10;6.93;;;4.20;;
177;SDS011;77;48.792;9.032;2022-09-29T03:36:36;7.70;;;4.50;;
177;SDS011;77;48.792;9.032;2022-09-29T03:39:01;10.33;;;4.30;;
177;SDS011;77;48.792;9.032;2022-09-29T03:41:26;8.80;;;4.53;;
177;SDS011;77;48.792;9.032;2022-09-29T03:43:53;9.93;;;4.40;;
177;SDS011;77;48.792;9.032;2022-09-29T03:46:18;8.70;;;4.53;;
177;SDS011;77;48.792;9.032;2022-09-29T03:48:43;6.67;;;4.43;;
177;SDS011;77;48.792;9.032;2022-09-29T03:51:08;8.20;;;4.53;;
177;SDS011;77;48.792;9.032;2022-09-29T03:53:33;7.33;;;4.40;;
177;SDS011;77;48.792;9.032;2022-09-29T03:55:59;6.20;;;4.30;;
177;SDS011;77;48.792;9.032;2022-09-29T03:58:24;6.27;;;4.03;;
177;SDS011;77;48.792;9.032;2022-09-29T04:00:51;7.77;;;4.27;;
177;SDS011;77;48.792;9.032;2022-09-29T04:03:17;8.60;;;4.63;;
177;SDS011;77;48.792;9.032;2022-09-29T04:05:43;7.10;;;4.07;;
177;SDS011;77;48.792;9.032;2022-09-29T04:08:08;6.37;;;4.33;;
177;SDS011;77;48.792;9.032;2022-09-29T04:10:34;5.90;;;4.07;;
177;SDS011;77;48.792;9.032;2022-09-29T04:12:59;6.97;;;4.70;;
177;SDS011;77;48.792;9.032;2022-09-29T04:15:24;6.20;;;4.30;;
177;SDS011;77;48.792;9.032;2022-09-29T04:17:51;8.40;;;4.73;;
177;SDS011;77;48.792;9.032;2022-09-29T04:20:16;8.43;;;4.20;;
177;SDS011;77;48.792;9.032;2022-09-29T04:22:41;8.83;;;4.40;;
177;SDS011;77;48.792;9.032;2022-09-29T04:25:07;7.50;;;4.93;;
177;SDS011;77;48.792;9.032;2022-09-29T04:27:32;8.67;;;4.90;;
177;SDS011;77;48.792;9.032;2022-09-29T04:29:57;7.23;;;4.47;;
177;SDS011;77;48.792;9.032;2022-09-29T04:32:22;11.37;;;4.60;;
177;SDS011;77;48.792;9.032;2022-09-29T04:34:49;6.70;;;4.30;;
177;SDS011;77;48.792;9.032;2022-09-29T04:37:14;9.53;;;4.60;;
177;SDS011;77;48.792;9.032;2022-09-29T04:39:40;7.30;;;4.63;;
177;SDS011;77;48.792;9.032;2022-09-29T04:42:05;5.70;;;4.40;;
177;SDS011;77;48.792;9.032;2022-09-29T04:44:30;6.10;;;4.30;;
177;SDS011;77;48.792;9.032;2022-09-29T04:46:55;6.23;;;4.37;;
177;SDS011;77;48.792;9.032;2022-09-29T04:49:22;6.50;;;4.17;;
177;SDS011;77;48.792;9.032;2022-09-29T04:51:49;6.37;;;4.70;;
177;SDS011;77;48.792;9.032;2022-09-29T04:54:14;7.93;;;4.93;;
177;SDS011;77;48.792;9.032;2022-09-29T04:56:39;8.70;;;4.90;;
177;SDS011;77;48.792;9.032;2022-09-29T04:59:04;8.20;;;5.10;;
177;SDS011;77;48.792;9.032;2022-09-29T05:01:30;8.47;;;4.90;;
177;SDS011;77;48.792;9.032;2022-09-29T05:03:55;7.33;;;4.73;;
177;SDS011;77;48.792;9.032;2022-09-29T05:06:20;8.77;;;4.80;;
177;SDS011;77;48.792;9.032;2022-09-29T05:08:47;8.83;;;4.90;;
177;SDS011;77;48.792;9.032;2022-09-29T05:11:12;9.73;;;5.20;;
177;SDS011;77;48.792;9.032;2022-09-29T05:13:37;8.20;;;5.13;;
177;SDS011;77;48.792;9.032;2022-09-29T05:16:03;8.23;;;4.87;;
177;SDS011;77;48.792;9.032;2022-09-29T05:18:29;7.47;;;4.80;;
177;SDS011;77;48.792;9.032;2022-09-29T05:20:54;7.53;;;4.60;;
177;SDS011;77;48.792;9.032;2022-09-29T05:23:19;7.90;;;4.90;;
177;SDS011;77;48.792;9.032;2022-09-29T05:25:46;6.97;;;4.63;;
177;SDS011;77;48.792;9.032;2022-09-29T05:28:11;12.83;;;5.67;;
177;SDS011;77;48.792;9.032;2022-09-29T05:30:37;6.60;;;4.60;;
177;SDS011;77;48.792;9.032;2022-09-29T05:33:02;9.53;;;5.03;;
177;SDS011;77;48.792;9.032;2022-09-29T05:35:28;7.97;;;5.13;;
177;SDS011;77;48.792;9.032;2022-09-29T05:37:53;7.27;;;4.70;;
177;SDS011;77;48.792;9.032;2022-09-29T05:40:18;12.47;;;4.90;;
177;SDS011;77;48.792;9.032;2022-09-29T05:42:45;7.90;;;4.77;;
177;SDS011;77;48.792;9.032;2022-09-29T05:45:10;6.90;;;4.87;;
177;SDS011;77;48.792;9.032;2022-09-29T05:47:36;8.40;;;5.10;;
177;SDS011;77;48.792;9.032;2022-09-29T05:50:05;7.93;;;5.50;;
177;SDS011;77;48.792;9.032;2022-09-29T05:52:30;9.40;;;5.40;;
177;SDS011;77;48.792;9.032;2022-09-29T05:54:55;9.90;;;5.47;;
177;SDS011;77;48.792;9.032;2022-09-29T05:57:20;7.63;;;4.83;;
177;SDS011;77;48.792;9.032;2022-09-29T05:59:47;8.33;;;5.27;;
177;SDS011;77;48.792;9.032;2022-09-29T06:02:13;7.47;;;4.83;;
177;SDS011;77;48.792;9.032;2022-09-29T06:04:38;8.10;;;5.07;;
177;SDS011;77;48.792;9.032;2022-09-29T06:07:03;7.13;;;5.20;;
177;SDS011;77;48.792;9.032;2022-09-29T06:09:28;9.67;;;5.50;;
177;SDS011;77;48.792;9.032;2022-09-29T06:11:54;10.50;;;5.30;;
177;SDS011;77;48.792;9.032;2022-09-29T06:14:19;10.73;;;6.00;;
177;SDS011;77;48.792;9.032;2022-09-29T06:16:46;8.10;;;5.50;;
177;SDS011;77;48.792;9.032;2022-09-29T06:19:11;9.93;;;5.33;;
177;SDS011;77;48.792;9.032;2022-09-29T06:21:36;8.37;;;5.33;;
177;SDS011;77;48.792;9.032;2022-09-29T06:24:01;8.83;;;5.50;;
177;SDS011;77;48.792;9.032;2022-09-29T06:26:27;8.93;;;5.70;;
177;SDS011;77;48.792;9.032;2022-09-29T06:28:53;12.00;;;5.70;;
177;SDS011;77;48.792;9.032;2022-09-29T06:31:19;8.80;;;5.90;;
177;SDS011;77;48.792;9.032;2022-09-29T06:33:46;9.87;;;6.00;;
177;SDS011;77;48.792;9.032;2022-09-29T06:36:14;8.33;;;6.10;;
177;SDS011;77;48.792;9.032;2022-09-29T06:38:42;9.07;;;5.67;;
177;SDS011;77;48.792;9.032;2022-09-29T06:41:08;11.03;;;6.30;;
177;SDS011;77;48.792;9.032;2022-09-29T06:43:33;10.93;;;5.87;;
177;SDS011;77;48.792;9.032;2022-09-29T06:45:59;11.27;;;6.47;;
177;SDS011;77;48.792;9.032;2022-09-29T06:48:24;11.17;;;6.43;;
177;SDS011;77;48.792;9.032;2022-09-29T06:50:52;10.60;;;6.60;;
177;SDS011;77;48.792;9.032;2022-09-29T06:53:18;11.80;;;6.30;;
177;SDS011;77;48.792;9.032;2022-09-29T06:55:43;13.87;;;6.30;;
177;SDS011;77;48.792;9.032;2022-09-29T06:58:15;9.10;;;6.30;;
177;SDS011;77;48.792;9.032;2022-09-29T07:00:44;9.87;;;6.80;;
177;SDS011;77;48.792;9.032;2022-09-29T07:03:09;9.87;;;6.57;;
177;SDS011;77;48.792;9.032;2022-09-29T07:05:34;11.20;;;6.60;;
177;SDS011;77;48.792;9.032;2022-09-29T07:08:01;14.40;;;6.77;;
177;SDS011;77;48.792;9.032;2022-09-29T07:10:26;11.10;;;6.27;;
177;SDS011;77;48.792;9.032;2022-09-29T07:12:52;10.10;;;6.93;;
177;SDS011;77;48.792;9.032;2022-09-29T07:15:17;11.20;;;6.57;;
177;SDS011;77;48.792;9.032;2022-09-29T07:17:43;10.70;;;7.03;;
177;SDS011;77;48.792;9.032;2022-09-29T07:20:08;11.13;;;6.77;;
177;SDS011;77;48.792;9.032;2022-09-29T07:22:33;13.90;;;6.80;;
177;SDS011;77;48.792;9.032;2022-09-29T07:25:00;10.57;;;6.20;;
177;SDS011;77;48.792;9.032;2022-09-29T07:27:25;11.70;;;6.83;;
177;SDS011;77;48.792;9.032;2022-09-29T07:29:51;9.40;;;6.40;;
177;SDS011;77;48.792;9.032;2022-09-29T07:32:16;12.23;;;6.57;;
177;SDS011;77;48.792;9.032;2022-09-29T07:34:42;10.83;;;6.47;;
177;SDS011;77;48.792;9.032;2022-09-29T07:37:07;10.07;;;6.30;;
177;SDS011;77;48.792;9.032;2022-09-29T07:39:32;9.53;;;6.17;;
177;SDS011;77;48.792;9.032;2022-09-29T07:41:59;9.60;;;5.83;;
177;SDS011;77;48.792;9.032;2022-09-29T07:44:24;8.57;;;5.30;;
177;SDS011;77;48.792;9.032;2022-09-29T07:46:51;8.57;;;5.40;;
177;SDS011;77;48.792;9.032;2022-09-29T07:49:16;10.20;;;5.10;;
177;SDS011;77;48.792;9.032;2022-09-29T07:51:42;10.13;;;5.40;;
177;SDS011;77;48.792;9.032;2022-09-29T07:54:07;8.13;;;5.57;;
177;SDS011;77;48.792;9.032;2022-09-29T07:56:33;7.20;;;5.17;;
177;SDS011;77;48.792;9.032;2022-09-29T07:58:59;9.27;;;5.10;;
177;SDS011;77;48.792;9.032;2022-09-29T08:01:25;8.03;;;5.07;;
177;SDS011;77;48.792;9.032;2022-09-29T08:03:51;8.23;;;4.90;;
177;SDS011;77;48.792;9.032;2022-09-29T08:06:17;8.70;;;5.10;;
177;SDS011;77;48.792;9.032;2022-09-29T08:08:42;8.97;;;5.03;;
177;SDS011;77;48.792;9.032;2022-09-29T08:11:08;9.20;;;5.30;;
177;SDS011;77;48.792;9.032;2022-09-29T08:13:34;9.50;;;5.33;;
177;SDS011;77;48.792;9.032;2022-09-29T08:16:01;7.37;;;5.30;;
177;SDS011;77;48.792;9.032;2022-09-29T08:18:27;6.93;;;5.17;;
177;SDS011;77;48.792;9.032;2022-09-29T08:20:53;9.43;;;5.47;;
177;SDS011;77;48.792;9.032;2022-09-29T08:23:18;8.73;;;5.77;;
177;SDS011;77;48.792;9.032;2022-09-29T08:25:43;10.03;;;6.37;;
177;SDS011;77;48.792;9.032;2022-09-29T08:28:09;13.90;;;6.60;;
177;SDS011;77;48.792;9.032;2022-09-29T08:30:34;10.27;;;5.50;;
177;SDS011;77;48.792;9.032;2022-09-29T08:33:01;8.90;;;5.90;;
177;SDS011;77;48.792;9.032;2022-09-29T08:35:26;11.83;;;5.23;;
177;SDS011;77;48.792;9.032;2022-09-29T08:37:52;9.77;;;5.63;;
177;SDS011;77;48.792;9.032;2022-09-29T08:40:17;9.83;;;5.60;;
177;SDS011;77;48.792;9.032;2022-09-29T08:42:45;9.47;;;5.77;;
177;SDS011;77;48.792;9.032;2022-09-29T08:45:12;10.83;;;5.70;;
177;SDS011;77;48.792;9.032;2022-09-29T08:47:39;8.80;;;5.70;;
177;SDS011;77;48.792;9.032;2022-09-29T08:50:11;10.10;;;6.10;;
177;SDS011;77;48.792;9.032;2022-09-29T08:52:39;11.07;;;5.50;;
177;SDS011;77;48.792;9.032;2022-09-29T08:55:11;7.73;;;5.27;;
177;SDS011;77;48.792;9.032;2022-09-29T08:57:44;8.53;;;5.27;;
177;SDS011;77;48.792;9.032;2022-09-29T09:00:10;8.10;;;5.60;;
177;SDS011;77;48.792;9.032;2022-09-29T09:02:42;9.77;;;5.30;;
177;SDS011;77;48.792;9.032;2022-09-29T09:05:16;10.73;;;5.83;;
177;SDS011;77;48.792;9.032;2022-09-29T09:07:48;11.80;;;6.10;;
177;SDS011;77;48.792;9.032;2022-09-29T09:10:20;8.30;;;5.80;;
177;SDS011;77;48.792;9.032;2022-09-29T09:15:31;9.10;;;5.73;;
177;SDS011;77;48.792;9.032;2022-09-29T09:20:47;9.10;;;6.07;;
177;SDS011;77;48.792;9.032;2022-09-29T09:23:16;10.67;;;5.60;;
177;SDS011;77;48.792;9.032;2022-09-29T09:25:45;10.33;;;6.30;;
177;SDS011;77;48.792;9.032;2022-09-29T09:28:13;10.27;;;6.03;;
177;SDS011;77;48.792;9.032;2022-09-29T09:30:40;12.20;;;6.00;;
177;SDS011;77;48.792;9.032;2022-09-29T09:33:06;10.27;;;5.63;;
177;SDS011;77;48.792;9.032;2022-09-29T09:35:36;8.43;;;5.40;;
177;SDS011;77;48.792;9.032;2022-09-29T09:38:09;9.97;;;5.30;;
177;SDS011;77;48.792;9.032;2022-09-29T09:40:41;8.67;;;5.40;;
177;SDS011;77;48.792;9.032;2022-09-29T09:43:09;8.80;;;5.20;;
177;SDS011;77;48.792;9.032;2022-09-29T09:45:36;8.37;;;4.77;;
177;SDS011;77;48.792;9.032;2022-09-29T09:48:04;8.03;;;4.53;;
177;SDS011;77;48.792;9.032;2022-09-29T09:50:31;8.37;;;3.83;;
177;SDS011;77;48.792;9.032;2022-09-29T09:52:57;10.97;;;4.73;;
177;SDS011;77;48.792;9.032;2022-09-29T09:55:26;7.73;;;4.20;;
177;SDS011;77;48.792;9.032;2022-09-29T09:57:57;5.87;;;3.63;;
177;SDS011;77;48.792;9.032;2022-09-29T10:00:27;5.43;;;3.60;;
177;SDS011;77;48.792;9.032;2022-09-29T10:02:55;8.47;;;3.53;;
177;SDS011;77;48.792;9.032;2022-09-29T10:05:21;8.70;;;3.80;;
177;SDS011;77;48.792;9.032;2022-09-29T10:07:47;9.60;;;4.00;;
177;SDS011;77;48.792;9.032;2022-09-29T10:10:14;7.10;;;3.83;;
177;SDS011;77;48.792;9.032;2022-09-29T10:12:41;7.93;;;3.97;;
177;SDS011;77;48.792;9.032;2022-09-29T10:15:14;8.70;;;4.00;;
177;SDS011;77;48.792;9.032;2022-09-29T10:17:43;11.03;;;3.83;;
177;SDS011;77;48.792;9.032;2022-09-29T10:20:09;4.63;;;3.00;;
177;SDS011;77;48.792;9.032;2022-09-29T10:22:35;6.33;;;3.17;;
177;SDS011;77;48.792;9.032;2022-09-29T10:25:11;8.33;;;3.40;;
177;SDS011;77;48.792;9.032;2022-09-29T10:27:41;4.77;;;3.30;;
177;SDS011;77;48.792;9.032;2022-09-29T10:30:15;7.37;;;3.30;;
177;SDS011;77;48.792;9.032;2022-09-29T10:32:41;8.20;;;3.43;;
177;SDS011;77;48.792;9.032;2022-09-29T10:35:15;9.23;;;3.77;;
177;SDS011;77;48.792;9.032;2022-09-29T10:37:41;4.30;;;2.90;;
177;SDS011;77;48.792;9.032;2022-09-29T10:40:14;5.90;;;3.33;;
177;SDS011;77;48.792;9.032;2022-09-29T10:42:42;7.10;;;3.57;;
177;SDS011;77;48.792;9.032;2022-09-29T10:45:10;6.00;;;3.40;;
177;SDS011;77;48.792;9.032;2022-09-29T10:47:36;6.17;;;3.33;;
177;SDS011;77;48.792;9.032;2022-09-29T10:50:06;8.60;;;3.17;;
177;SDS011;77;48.792;9.032;2022-09-29T10:52:34;7.00;;;3.43;;
177;SDS011;77;48.792;9.032;2022-09-29T10:55:00;7.50;;;3.60;;
177;SDS011;77;48.792;9.032;2022-09-29T10:57:26;5.63;;;3.20;;
177;SDS011;77;48.792;9.032;2022-09-29T10:59:54;5.50;;;3.30;;
177;SDS011;77;48.792;9.032;2022-09-29T11:02:22;6.77;;;3.63;;
177;SDS011;77;48.792;9.032;2022-09-29T11:04:51;5.87;;;3.80;;
177;SDS011;77;48.792;9.032;2022-09-29T11:07:17;6.93;;;4.20;;
177;SDS011;77;48.792;9.032;2022-09-29T11:09:43;6.63;;;3.90;;
177;SDS011;77;48.792;9.032;2022-09-29T11:12:23;6.00;;;3.70;;
177;SDS011;77;48.792;9.032;2022-09-29T11:14:49;5.50;;;3.87;;
177;SDS011;77;48.792;9.032;2022-09-29T11:17:25;6.90;;;4.23;;
177;SDS011;77;48.792;9.032;2022-09-29T11:19:51;12.50;;;4.50;;
177;SDS011;77;48.792;9.032;2022-09-29T11:25:01;6.93;;;4.50;;
177;SDS011;77;48.792;9.032;2022-09-29T11:27:37;8.27;;;4.57;;
177;SDS011;77;48.792;9.032;2022-09-29T11:30:06;5.97;;;3.57;;
177;SDS011;77;48.792;9.032;2022-09-29T11:32:37;7.30;;;3.93;;
177;SDS011;77;48.792;9.032;2022-09-29T11:35:12;6.50;;;3.70;;
177;SDS011;77;48.792;9.032;2022-09-29T11:37:50;7.47;;;3.77;;
177;SDS011;77;48.792;9.032;2022-09-29T11:40:22;6.80;;;3.70;;
177;SDS011;77;48.792;9.032;2022-09-29T11:42:55;5.83;;;3.50;;
177;SDS011;77;48.792;9.032;2022-09-29T11:45:27;7.30;;;3.87;;
177;SDS011;77;48.792;9.032;2022-09-29T11:50:47;7.07;;;3.80;;
177;SDS011;77;48.792;9.032;2022-09-29T11:53:26;6.53;;;3.77;;
177;SDS011;77;48.792;9.032;2022-09-29T11:56:00;5.97;;;3.70;;
177;SDS011;77;48.792;9.032;2022-09-29T11:58:36;6.17;;;3.87;;
177;SDS011;77;48.792;9.032;2022-09-29T12:01:15;6.17;;;3.50;;
177;SDS011;77;48.792;9.032;2022-09-29T12:03:44;7.50;;;3.80;;
177;SDS011;77;48.792;9.032;2022-09-29T12:06:20;7.53;;;3.77;;
177;SDS011;77;48.792;9.032;2022-09-29T12:08:55;5.63;;;3.80;;
177;SDS011;77;48.792;9.032;2022-09-29T12:11:28;5.87;;;3.43;;
177;SDS011;77;48.792;9.032;2022-09-29T12:13:57;5.23;;;3.40;;
177;SDS011;77;48.792;9.032;2022-09-29T12:16:26;6.23;;;3.77;;
177;SDS011;77;48.792;9.032;2022-09-29T12:18:54;6.20;;;3.57;;
177;SDS011;77;48.792;9.032;2022-09-29T12:21:25;5.47;;;3.50;;
177;SDS011;77;48.792;9.032;2022-09-29T12:23:51;10.73;;;4.03;;
177;SDS011;77;48.792;9.032;2022-09-29T12:26:18;5.00;;;3.30;;
177;SDS011;77;48.792;9.032;2022-09-29T12:28:46;6.83;;;3.50;;
177;SDS011;77;48.792;9.032;2022-09-29T12:31:14;5.77;;;3.60;;
177;SDS011;77;48.792;9.032;2022-09-29T12:33:41;5.80;;;3.60;;
177;SDS011;77;48.792;9.032;2022-09-29T12:36:12;8.37;;;3.93;;
177;SDS011;77;48.792;9.032;2022-09-29T12:38:43;7.93;;;4.00;;
177;SDS011;77;48.792;9.032;2022-09-29T12:41:10;7.00;;;3.67;;
177;SDS011;77;48.792;9.032;2022-09-29T12:43:37;7.50;;;3.93;;
177;SDS011;77;48.792;9.032;2022-09-29T12:46:08;6.73;;;3.47;;
177;SDS011;77;48.792;9.032;2022-09-29T12:48:37;5.23;;;3.70;;
177;SDS011;77;48.792;9.032;2022-09-29T12:51:08;7.97;;;3.77;;
177;SDS011;77;48.792;9.032;2022-09-29T12:53:36;8.67;;;3.70;;
177;SDS011;77;48.792;9.032;2022-09-29T12:56:06;5.80;;;3.33;;
177;SDS011;77;48.792;9.032;2022-09-29T12:58:36;6.03;;;3.17;;
177;SDS011;77;48.792;9.032;2022-09-29T13:01:08;5.30;;;3.50;;
177;SDS011;77;48.792;9.032;2022-09-29T13:03:40;5.77;;;3.40;;
177;SDS011;77;48.792;9.032;2022-09-29T13:06:11;5.53;;;3.20;;
177;SDS011;77;48.792;9.032;2022-09-29T13:08:46;4.23;;;2.83;;
177;SDS011;77;48.792;9.032;2022-09-29T13:11:31;7.63;;;3.13;;
177;SDS011;77;48.792;9.032;2022-09-29T13:16:49;4.87;;;3.20;;
177;SDS011;77;48.792;9.032;2022-09-29T13:19:29;5.77;;;2.90;;
177;SDS011;77;48.792;9.032;2022-09-29T13:22:04;5.27;;;3.07;;
177;SDS011;77;48.792;9.032;2022-09-29T13:24:38;6.33;;;3.17;;
177;SDS011;77;48.792;9.032;2022-09-29T13:27:20;6.77;;;3.30;;
177;SDS011;77;48.792;9.032;2022-09-29T13:29:48;5.10;;;3.37;;
177;SDS011;77;48.792;9.032;2022-09-29T13:32:14;7.60;;;3.70;;
177;SDS011;77;48.792;9.032;2022-09-29T13:34:44;4.90;;;3.27;;
177;SDS011;77;48.792;9.032;2022-09-29T13:37:11;5.10;;;3.17;;
177;SDS011;77;48.792;9.032;2022-09-29T13:39:39;5.30;;;3.40;;
177;SDS011;77;48.792;9.032;2022-09-29T13:47:40;8.33;;;4.33;;
177;SDS011;77;48.792;9.032;2022-09-29T13:52:52;8.30;;;4.43;;
177;SDS011;77;48.792;9.032;2022-09-29T13:57:58;7.40;;;4.37;;
177;SDS011;77;48.792;9.032;2022-09-29T14:00:23;8.10;;;4.20;;
177;SDS011;77;48.792;9.032;2022-09-29T14:05:37;8.33;;;4.20;;
177;SDS011;77;48.792;9.032;2022-09-29T14:08:11;10.00;;;4.17;;
177;SDS011;77;48.792;9.032;2022-09-29T14:10:38;7.60;;;4.33;;
177;SDS011;77;48.792;9.032;2022-09-29T14:13:06;9.60;;;4.17;;
177;SDS011;77;48.792;9.032;2022-09-29T14:15:36;6.53;;;4.13;;
177;SDS011;77;48.792;9.032;2022-09-29T14:18:03;8.40;;;4.00;;
177;SDS011;77;48.792;9.032;2022-09-29T14:20:31;6.40;;;4.40;;
177;SDS011;77;48.792;9.032;2022-09-29T14:22:59;5.90;;;3.93;;
177;SDS011;77;48.792;9.032;2022-09-29T14:25:32;7.97;;;4.37;;
177;SDS011;77;48.792;9.032;2022-09-29T14:27:58;8.93;;;4.33;;
177;SDS011;77;48.792;9.032;2022-09-29T14:30:35;7.30;;;4.20;;
177;SDS011;77;48.792;9.032;2022-09-29T14:33:07;8.30;;;4.50;;
177;SDS011;77;48.792;9.032;2022-09-29T14:35:34;6.67;;;4.27;;
177;SDS011;77;48.792;9.032;2022-09-29T14:38:02;6.83;;;4.80;;
177;SDS011;77;48.792;9.032;2022-09-29T14:40:29;7.70;;;4.23;;
177;SDS011;77;48.792;9.032;2022-09-29T14:45:46;6.97;;;4.30;;
177;SDS011;77;48.792;9.032;2022-09-29T14:48:15;9.13;;;4.53;;
177;SDS011;77;48.792;9.032;2022-09-29T14:50:43;8.27;;;4.20;;
177;SDS011;77;48.792;9.032;2022-09-29T14:53:23;7.10;;;4.20;;
177;SDS011;77;48.792;9.032;2022-09-29T14:55:54;7.20;;;3.87;;
177;SDS011;77;48.792;9.032;2022-09-29T14:58:26;7.77;;;4.07;;
177;SDS011;77;48.792;9.032;2022-09-29T15:01:00;6.07;;;3.60;;
177;SDS011;77;48.792;9.032;2022-09-29T15:03:27;9.90;;;4.60;;
177;SDS011;77;48.792;9.032;2022-09-29T15:06:03;5.00;;;3.33;;
177;SDS011;77;48.792;9.032;2022-09-29T15:08:30;9.33;;;3.70;;
177;SDS011;77;48.792;9.032;2022-09-29T15:10:56;7.33;;;4.20;;
177;SDS011;77;48.792;9.032;2022-09-29T15:13:22;6.27;;;3.70;;
177;SDS011;77;48.792;9.032;2022-09-29T15:15:48;9.00;;;3.57;;
177;SDS011;77;48.792;9.032;2022-09-29T15:18:20;6.27;;;3.30;;
177;SDS011;77;48.792;9.032;2022-09-29T15:20:50;6.17;;;3.50;;
177;SDS011;77;48.792;9.032;2022-09-29T15:25:59;5.77;;;3.43;;
177;SDS011;77;48.792;9.032;2022-09-29T15:28:26;6.43;;;4.00;;
177;SDS011;77;48.792;9.032;2022-09-29T15:30:52;8.20;;;4.60;;
177;SDS011;77;48.792;9.032;2022-09-29T15:33:19;6.23;;;3.90;;
177;SDS011;77;48.792;9.032;2022-09-29T15:35:47;6.00;;;3.47;;
177;SDS011;77;48.792;9.032;2022-09-29T15:38:24;7.63;;;3.40;;
177;SDS011;77;48.792;9.032;2022-09-29T15:40:51;6.60;;;3.63;;
177;SDS011;77;48.792;9.032;2022-09-29T15:43:22;5.27;;;3.30;;
177;SDS011;77;48.792;9.032;2022-09-29T15:45:51;7.47;;;3.40;;
177;SDS011;77;48.792;9.032;2022-09-29T15:48:17;6.07;;;3.10;;
177;SDS011;77;48.792;9.032;2022-09-29T15:50:42;5.87;;;3.40;;
177;SDS011;77;48.792;9.032;2022-09-29T15:53:07;4.97;;;3.00;;
177;SDS011;77;48.792;9.032;2022-09-29T15:55:34;5.53;;;3.20;;
177;SDS011;77;48.792;9.032;2022-09-29T15:57:59;6.03;;;3.03;;
177;SDS011;77;48.792;9.032;2022-09-29T16:03:18;4.43;;;3.10;;
177;SDS011;77;48.792;9.032;2022-09-29T16:05:51;5.47;;;3.00;;
177;SDS011;77;48.792;9.032;2022-09-29T16:08:18;4.93;;;3.23;;
177;SDS011;77;48.792;9.032;2022-09-29T16:10:47;6.07;;;3.40;;
177;SDS011;77;48.792;9.032;2022-09-29T16:13:14;6.63;;;3.60;;
177;SDS011;77;48.792;9.032;2022-09-29T16:15:42;5.80;;;3.50;;
177;SDS011;77;48.792;9.032;2022-09-29T16:18:09;6.97;;;3.97;;
177;SDS011;77;48.792;9.032;2022-09-29T16:20:38;6.90;;;3.60;;
177;SDS011;77;48.792;9.032;2022-09-29T16:23:06;8.03;;;3.40;;
177;SDS011;77;48.792;9.032;2022-09-29T16:25:32;10.13;;;4.13;;
177;SDS011;77;48.792;9.032;2022-09-29T16:27:57;9.10;;;3.60;;
177;SDS011;77;48.792;9.032;2022-09-29T16:30:24;7.30;;;3.40;;
177;SDS011;77;48.792;9.032;2022-09-29T16:32:53;5.77;;;3.80;;
177;SDS011;77;48.792;9.032;2022-09-29T16:35:39;6.53;;;3.93;;
177;SDS011;77;48.792;9.032;2022-09-29T16:38:07;5.13;;;3.20;;
177;SDS011;77;48.792;9.032;2022-09-29T16:40:33;6.40;;;3.60;;
177;SDS011;77;48.792;9.032;2022-09-29T16:43:02;8.33;;;3.90;;